createdAt,value
2018-05-11T00:00:23.575Z,5.77
2018-05-11T00:02:50.405Z,5.00
2018-05-11T00:05:17.280Z,5.60
2018-05-11T00:07:44.318Z,4.60
2018-05-11T00:10:11.465Z,4.40
2018-05-11T00:12:38.517Z,5.20
2018-05-11T00:15:05.363Z,6.47
2018-05-11T00:17:32.209Z,5.10
2018-05-11T00:19:59.094Z,8.47
2018-05-11T00:22:26.099Z,6.43
2018-05-11T00:24:53.050Z,5.90
2018-05-11T00:27:19.997Z,4.93
2018-05-11T00:29:47.054Z,4.53
2018-05-11T00:32:13.990Z,5.33
2018-05-11T00:34:41.124Z,7.80
2018-05-11T00:37:07.935Z,6.53
2018-05-11T00:39:35.554Z,7.63
2018-05-11T00:42:02.601Z,5.67
2018-05-11T00:44:29.659Z,6.03
2018-05-11T00:46:56.511Z,5.87
2018-05-11T00:49:23.559Z,4.73
2018-05-11T00:51:50.491Z,6.40
2018-05-11T00:54:17.448Z,5.63
2018-05-11T00:56:44.491Z,5.27
2018-05-11T00:59:11.541Z,5.87
2018-05-11T01:01:38.596Z,5.77
2018-05-11T01:04:05.658Z,6.70
2018-05-11T01:06:34.123Z,4.70
2018-05-11T01:09:01.175Z,7.60
2018-05-11T01:11:28.119Z,5.73
2018-05-11T01:13:55.167Z,4.57
2018-05-11T01:16:22.124Z,4.87
2018-05-11T01:18:48.962Z,6.37
2018-05-11T01:21:17.271Z,7.03
2018-05-11T01:23:44.904Z,7.63
2018-05-11T01:26:11.848Z,6.73
2018-05-11T01:28:38.801Z,5.83
2018-05-11T01:31:06.575Z,7.47
2018-05-11T01:33:33.512Z,5.17
2018-05-11T01:36:00.491Z,5.10
2018-05-11T01:38:27.402Z,4.97
2018-05-11T01:40:54.456Z,4.57
2018-05-11T01:43:21.401Z,4.90
2018-05-11T01:45:48.245Z,5.77
2018-05-11T01:48:15.203Z,8.47
2018-05-11T01:50:43.507Z,6.00
2018-05-11T01:53:11.138Z,4.50
2018-05-11T01:55:37.980Z,4.67
2018-05-11T01:58:05.040Z,6.97
2018-05-11T02:00:32.088Z,5.33
2018-05-11T02:02:59.037Z,5.20
2018-05-11T02:05:26.283Z,6.50
2018-05-11T02:07:53.239Z,6.17
2018-05-11T02:10:20.180Z,6.63
2018-05-11T02:12:47.130Z,6.50
2018-05-11T02:15:13.998Z,5.17
2018-05-11T02:17:40.916Z,5.60
2018-05-11T02:20:07.757Z,5.20
2018-05-11T02:22:34.708Z,6.07
2018-05-11T02:25:01.765Z,5.70
2018-05-11T02:27:28.635Z,6.17
2018-05-11T02:29:55.548Z,6.80
2018-05-11T02:32:22.619Z,5.90
2018-05-11T02:34:49.549Z,6.73
2018-05-11T02:37:16.607Z,7.27
2018-05-11T02:39:43.656Z,8.63
2018-05-11T02:42:10.695Z,7.43
2018-05-11T02:44:37.642Z,7.33
2018-05-11T02:47:04.587Z,8.10
2018-05-11T02:49:31.642Z,6.97
2018-05-11T02:51:58.696Z,8.30
2018-05-11T02:54:25.727Z,6.20
2018-05-11T02:56:52.685Z,5.70
2018-05-11T02:59:19.541Z,5.73
2018-05-11T03:01:46.476Z,6.70
2018-05-11T03:04:13.534Z,6.87
2018-05-11T03:06:40.482Z,6.93
2018-05-11T03:09:07.426Z,6.73
2018-05-11T03:11:34.486Z,6.43
2018-05-11T03:14:01.312Z,6.93
2018-05-11T03:16:28.261Z,6.63
2018-05-11T03:18:55.109Z,6.80
2018-05-11T03:21:21.951Z,7.93
2018-05-11T03:23:48.906Z,7.47
2018-05-11T03:26:17.392Z,7.23
2018-05-11T03:28:44.235Z,6.77
2018-05-11T03:31:10.990Z,6.93
2018-05-11T03:33:37.785Z,7.63
2018-05-11T03:36:04.871Z,6.87
2018-05-11T03:38:31.706Z,7.40
2018-05-11T03:40:58.568Z,9.43
2018-05-11T03:43:25.500Z,8.83
2018-05-11T03:46:07.194Z,7.17
2018-05-11T03:48:34.255Z,7.40
2018-05-11T03:51:01.382Z,6.60
2018-05-11T03:53:28.339Z,7.30
2018-05-11T03:55:55.292Z,6.97
2018-05-11T03:58:22.244Z,7.40
2018-05-11T04:00:49.185Z,6.57
2018-05-11T04:03:28.343Z,6.90
2018-05-11T04:06:14.955Z,6.80
2018-05-11T04:08:43.724Z,6.93
2018-05-11T04:11:11.692Z,6.40
2018-05-11T04:13:38.640Z,6.97
2018-05-11T04:16:05.466Z,6.67
2018-05-11T04:18:32.632Z,6.87
2018-05-11T04:20:59.386Z,7.43
2018-05-11T04:23:26.319Z,6.97
2018-05-11T04:25:53.277Z,7.83
2018-05-11T04:28:20.314Z,7.57
2018-05-11T04:30:47.159Z,7.30
2018-05-11T04:33:14.117Z,8.03
2018-05-11T04:35:41.167Z,8.00
2018-05-11T04:38:08.108Z,7.97
2018-05-11T04:40:35.055Z,10.57
2018-05-11T04:43:01.894Z,8.70
2018-05-11T04:45:28.844Z,7.83
2018-05-11T04:47:55.800Z,7.20
2018-05-11T04:50:22.952Z,7.50
2018-05-11T04:52:49.899Z,7.53
2018-05-11T04:55:16.852Z,8.47
2018-05-11T04:57:43.783Z,6.77
2018-05-11T05:00:10.571Z,6.07
2018-05-11T05:02:38.295Z,6.57
2018-05-11T05:05:05.353Z,6.23
2018-05-11T05:07:32.185Z,7.33
2018-05-11T05:09:59.133Z,8.27
2018-05-11T05:12:26.283Z,10.07
2018-05-11T05:14:53.845Z,10.87
2018-05-11T05:17:20.797Z,11.33
2018-05-11T05:19:47.740Z,10.17
2018-05-11T05:22:14.532Z,11.63
2018-05-11T05:24:42.085Z,13.20
2018-05-11T05:27:09.681Z,11.30
2018-05-11T05:29:36.499Z,12.43
2018-05-11T05:32:04.095Z,9.67
2018-05-11T05:34:30.921Z,13.40
2018-05-11T05:36:57.776Z,14.17
2018-05-11T05:39:45.848Z,11.37
2018-05-11T05:42:12.734Z,10.67
2018-05-11T05:44:40.258Z,12.57
2018-05-11T05:47:07.149Z,9.77
2018-05-11T05:49:34.643Z,10.77
2018-05-11T05:52:01.444Z,10.07
2018-05-11T05:54:28.317Z,10.83
2018-05-11T05:56:55.176Z,11.73
2018-05-11T05:59:22.056Z,11.57
2018-05-11T06:01:49.099Z,13.07
2018-05-11T06:04:16.034Z,14.17
2018-05-11T06:06:42.992Z,12.13
2018-05-11T06:09:09.776Z,12.23
2018-05-11T06:11:36.775Z,11.33
2018-05-11T06:14:04.545Z,12.07
2018-05-11T06:16:31.330Z,11.33
2018-05-11T06:18:59.061Z,12.57
2018-05-11T06:21:26.110Z,11.07
2018-05-11T06:23:53.058Z,12.17
2018-05-11T06:26:19.998Z,14.03
2018-05-11T06:28:46.950Z,15.97
2018-05-11T06:31:13.689Z,12.73
2018-05-11T06:33:40.629Z,15.10
2018-05-11T06:36:07.589Z,14.83
2018-05-11T06:38:34.536Z,13.37
2018-05-11T06:41:01.477Z,12.63
2018-05-11T06:43:28.427Z,12.57
2018-05-11T06:45:55.371Z,12.83
2018-05-11T06:48:22.416Z,11.50
2018-05-11T06:50:49.366Z,13.00
2018-05-11T06:53:16.321Z,12.17
2018-05-11T06:55:43.364Z,12.27
2018-05-11T06:58:10.410Z,11.00
2018-05-11T07:00:37.369Z,12.93
2018-05-11T07:03:04.417Z,10.67
2018-05-11T07:05:31.466Z,11.47
2018-05-11T07:07:58.445Z,11.70
2018-05-11T07:10:25.328Z,10.80
2018-05-11T07:12:52.298Z,11.73
2018-05-11T07:15:22.333Z,10.10
2018-05-11T07:17:49.277Z,11.77
2018-05-11T07:20:16.316Z,9.80
2018-05-11T07:22:43.168Z,10.00
2018-05-11T07:25:10.003Z,9.80
2018-05-11T07:27:36.949Z,10.27
2018-05-11T07:30:04.016Z,8.67
2018-05-11T07:32:31.060Z,7.77
2018-05-11T07:34:58.021Z,8.83
2018-05-11T07:37:25.671Z,7.97
2018-05-11T07:39:52.721Z,8.20
2018-05-11T07:42:19.664Z,8.50
2018-05-11T07:44:46.607Z,9.80
2018-05-11T07:47:13.561Z,10.33
2018-05-11T07:49:40.508Z,9.17
2018-05-11T07:52:07.444Z,10.97
2018-05-11T07:54:34.499Z,7.90
2018-05-11T07:57:01.555Z,8.70
2018-05-11T07:59:28.606Z,9.60
2018-05-11T08:01:55.552Z,9.37
2018-05-11T08:04:22.492Z,8.73
2018-05-11T08:06:49.374Z,8.87
2018-05-11T08:09:16.963Z,8.53
2018-05-11T08:11:43.809Z,8.37
2018-05-11T08:14:10.643Z,9.40
2018-05-11T08:16:37.536Z,7.77
2018-05-11T08:19:04.353Z,11.17
2018-05-11T08:21:31.088Z,9.87
2018-05-11T08:23:57.891Z,8.10
2018-05-11T08:26:25.493Z,9.50
2018-05-11T08:28:52.241Z,8.93
2018-05-11T08:31:19.084Z,9.27
2018-05-11T08:33:45.821Z,8.40
2018-05-11T08:36:12.676Z,7.90
2018-05-11T08:38:39.528Z,8.33
2018-05-11T08:41:07.111Z,9.20
2018-05-11T08:43:33.906Z,8.80
2018-05-11T08:46:00.685Z,7.10
2018-05-11T08:48:27.478Z,9.00
2018-05-11T08:50:55.115Z,8.47
2018-05-11T08:53:21.922Z,7.83
2018-05-11T08:55:48.706Z,8.17
2018-05-11T08:58:15.515Z,8.47
2018-05-11T09:00:43.204Z,8.47
2018-05-11T09:03:10.050Z,9.97
2018-05-11T09:05:36.849Z,7.83
2018-05-11T09:08:03.748Z,7.50
2018-05-11T09:10:30.588Z,10.53
2018-05-11T09:12:57.480Z,12.10
2018-05-11T09:15:44.906Z,8.53
2018-05-11T09:18:11.695Z,9.43
2018-05-11T09:20:38.488Z,11.90
2018-05-11T09:23:06.083Z,10.23
2018-05-11T09:25:32.884Z,11.37
2018-05-11T09:28:00.469Z,9.77
2018-05-11T09:30:27.480Z,8.90
2018-05-11T09:32:54.269Z,9.77
2018-05-11T09:35:21.128Z,8.93
2018-05-11T09:37:47.927Z,8.83
2018-05-11T09:40:15.555Z,11.37
2018-05-11T09:42:42.412Z,10.33
2018-05-11T09:45:09.360Z,10.93
2018-05-11T09:47:36.210Z,9.73
2018-05-11T09:50:03.107Z,10.37
2018-05-11T09:52:29.857Z,9.57
2018-05-11T09:54:56.589Z,9.40
2018-05-11T09:57:23.417Z,9.67
2018-05-11T09:59:50.192Z,11.77
2018-05-11T10:02:16.985Z,11.70
2018-05-11T10:04:44.578Z,14.97
2018-05-11T10:07:11.420Z,11.90
2018-05-11T10:09:38.267Z,11.37
2018-05-11T10:12:05.112Z,10.20
2018-05-11T10:20:23.407Z,12.10
2018-05-11T10:22:50.339Z,11.63
2018-05-11T10:25:17.163Z,9.50
2018-05-11T10:27:44.806Z,10.77
2018-05-11T10:30:11.638Z,8.53
2018-05-11T10:32:38.416Z,11.23
2018-05-11T10:35:06.061Z,10.07
2018-05-11T10:37:32.869Z,8.90
2018-05-11T10:39:59.646Z,7.77
2018-05-11T10:42:26.445Z,8.90
2018-05-11T10:44:53.225Z,9.90
2018-05-11T10:47:20.264Z,12.40
2018-05-11T10:49:47.223Z,9.43
2018-05-11T10:52:14.273Z,11.87
2018-05-11T10:54:41.106Z,12.77
2018-05-11T10:57:08.159Z,12.47
2018-05-11T10:59:35.109Z,8.70
2018-05-11T11:02:02.156Z,7.87
2018-05-11T11:04:29.001Z,10.53
2018-05-11T11:06:55.956Z,12.10
2018-05-11T11:09:23.005Z,9.07
2018-05-11T11:11:49.840Z,15.23
2018-05-11T11:14:22.873Z,14.87
2018-05-11T11:16:50.456Z,9.30
2018-05-11T11:19:17.471Z,9.83
2018-05-11T11:21:45.089Z,10.33
2018-05-11T11:24:11.890Z,11.13
2018-05-11T11:26:39.410Z,11.07
2018-05-11T11:29:06.243Z,11.10
2018-05-11T11:31:33.120Z,9.40
2018-05-11T11:33:59.942Z,8.73
2018-05-11T11:36:26.723Z,7.70
2018-05-11T11:38:54.306Z,12.43
2018-05-11T11:41:21.077Z,9.87
2018-05-11T11:43:47.873Z,11.13
2018-05-11T11:46:15.403Z,10.77
2018-05-11T11:48:42.221Z,9.33
2018-05-11T11:51:09.052Z,10.07
2018-05-11T11:53:35.885Z,8.43
2018-05-11T11:56:02.693Z,8.30
2018-05-11T11:58:30.244Z,6.80
2018-05-11T12:00:57.074Z,6.37
2018-05-11T12:03:23.849Z,6.33
2018-05-11T12:05:50.636Z,6.60
2018-05-11T12:08:17.433Z,9.47
2018-05-11T12:10:44.290Z,8.17
2018-05-11T12:13:11.955Z,8.27
2018-05-11T12:18:41.788Z,8.67
2018-05-11T12:21:09.371Z,7.97
2018-05-11T12:23:36.942Z,8.20
2018-05-11T12:26:03.902Z,5.90
2018-05-11T12:28:30.662Z,5.97
2018-05-11T12:30:57.486Z,6.53
2018-05-11T12:33:25.039Z,5.33
2018-05-11T12:35:51.869Z,5.97
2018-05-11T12:38:19.475Z,6.20
2018-05-11T12:40:46.345Z,5.77
2018-05-11T12:43:13.091Z,5.00
2018-05-11T12:45:39.995Z,5.60
2018-05-11T12:48:06.733Z,6.73
2018-05-11T12:50:33.619Z,8.43
2018-05-11T12:53:00.563Z,7.13
2018-05-11T12:55:27.420Z,6.50
2018-05-11T12:57:54.234Z,5.80
2018-05-11T13:00:21.204Z,7.60
2018-05-11T13:02:48.002Z,7.00
2018-05-11T13:05:14.875Z,10.83
2018-05-11T13:07:41.799Z,5.80
2018-05-11T13:10:08.590Z,5.23
2018-05-11T13:12:35.416Z,5.70
2018-05-11T13:15:21.291Z,6.87
2018-05-11T13:17:48.125Z,6.20
2018-05-11T13:20:14.913Z,7.90
2018-05-11T13:22:41.705Z,9.63
2018-05-11T13:25:08.601Z,7.63
2018-05-11T13:27:35.483Z,7.33
2018-05-11T13:30:02.426Z,5.83
2018-05-11T13:32:29.977Z,6.87
2018-05-11T13:34:57.608Z,6.30
2018-05-11T13:37:24.480Z,7.57
2018-05-11T13:39:52.030Z,7.87
2018-05-11T13:42:18.872Z,8.00
2018-05-11T13:44:45.695Z,6.60
2018-05-11T13:47:12.468Z,5.63
2018-05-11T13:49:39.249Z,6.00
2018-05-11T13:52:06.139Z,4.90
2018-05-11T13:54:32.989Z,7.13
2018-05-11T13:56:59.752Z,7.20
2018-05-11T13:59:27.314Z,5.47
2018-05-11T14:01:54.841Z,6.87
2018-05-11T14:04:21.617Z,6.90
2018-05-11T14:06:49.285Z,4.50
2018-05-11T14:09:16.907Z,4.13
2018-05-11T14:11:43.683Z,5.13
2018-05-11T14:14:10.414Z,4.50
2018-05-11T14:16:46.823Z,4.90
2018-05-11T14:19:14.201Z,5.40
2018-05-11T14:21:41.109Z,3.87
2018-05-11T14:24:08.717Z,4.03
2018-05-11T14:26:35.595Z,5.77
2018-05-11T14:29:02.420Z,5.00
2018-05-11T14:31:29.310Z,6.23
2018-05-11T14:33:56.873Z,5.50
2018-05-11T14:36:24.402Z,4.40
2018-05-11T14:38:51.160Z,3.83
2018-05-11T14:41:20.039Z,4.60
2018-05-11T14:43:46.869Z,5.27
2018-05-11T14:46:13.661Z,4.50
2018-05-11T14:48:41.211Z,5.70
2018-05-11T14:51:08.888Z,4.53
2018-05-11T14:53:36.460Z,5.37
2018-05-11T14:56:03.258Z,6.20
2018-05-11T14:58:30.030Z,8.90
2018-05-11T15:00:57.588Z,8.83
2018-05-11T15:03:24.401Z,6.43
2018-05-11T15:05:51.300Z,7.60
2018-05-11T15:08:18.140Z,6.80
2018-05-11T15:10:45.014Z,8.30
2018-05-11T15:13:12.604Z,6.07
2018-05-11T15:18:44.627Z,6.50
2018-05-11T15:21:12.236Z,5.50
2018-05-11T15:23:39.039Z,4.93
2018-05-11T15:26:06.576Z,5.77
2018-05-11T15:28:33.388Z,6.00
2018-05-11T15:31:00.226Z,7.70
2018-05-11T15:33:27.083Z,11.67
2018-05-11T15:35:53.892Z,6.07
2018-05-11T15:38:20.664Z,6.10
2018-05-11T15:40:47.517Z,7.93
2018-05-11T15:43:14.322Z,9.13
2018-05-11T15:45:41.035Z,7.57
2018-05-11T15:48:08.630Z,6.23
2018-05-11T15:50:35.428Z,7.77
2018-05-11T15:53:02.213Z,7.93
2018-05-11T15:55:29.026Z,5.87
2018-05-11T15:57:56.527Z,9.43
2018-05-11T16:00:23.390Z,7.33
2018-05-11T16:02:50.268Z,8.03
2018-05-11T16:05:17.104Z,7.37
2018-05-11T16:07:43.962Z,6.87
2018-05-11T16:10:11.610Z,8.53
2018-05-11T16:12:38.434Z,6.83
2018-05-11T16:18:07.033Z,8.73
2018-05-11T16:20:33.978Z,7.10
2018-05-11T16:23:00.742Z,8.77
2018-05-11T16:25:28.050Z,6.67
2018-05-11T16:27:55.625Z,8.40
2018-05-11T16:30:22.727Z,12.57
2018-05-11T16:32:49.580Z,11.10
2018-05-11T16:35:17.094Z,8.07
2018-05-11T16:37:43.807Z,6.73
2018-05-11T16:40:11.433Z,9.30
2018-05-11T16:42:38.278Z,8.00
2018-05-11T16:45:05.196Z,6.87
2018-05-11T16:47:31.988Z,7.73
2018-05-11T16:49:59.468Z,8.60
2018-05-11T16:52:27.068Z,8.37
2018-05-11T16:54:53.943Z,9.03
2018-05-11T16:57:20.798Z,8.90
2018-05-11T16:59:48.266Z,9.50
2018-05-11T17:02:15.872Z,10.63
2018-05-11T17:04:42.751Z,9.63
2018-05-11T17:07:09.533Z,9.63
2018-05-11T17:09:36.372Z,9.03
2018-05-11T17:12:04.001Z,11.23
2018-05-11T17:14:58.184Z,8.57
2018-05-11T17:17:25.468Z,8.33
2018-05-11T17:19:53.021Z,10.60
2018-05-11T17:22:19.921Z,8.13
2018-05-11T17:24:46.756Z,9.87
2018-05-11T17:27:13.566Z,13.23
2018-05-11T17:29:41.029Z,7.70
2018-05-11T17:32:08.560Z,9.70
2018-05-11T17:34:35.448Z,11.63
2018-05-11T17:37:02.271Z,10.00
2018-05-11T17:39:29.816Z,10.07
2018-05-11T17:41:56.707Z,9.13
2018-05-11T17:44:23.540Z,8.93
2018-05-11T17:46:50.340Z,9.97
2018-05-11T17:49:17.076Z,8.70
2018-05-11T17:51:43.964Z,8.50
2018-05-11T17:54:11.504Z,9.37
2018-05-11T17:56:38.429Z,12.57
2018-05-11T17:59:05.395Z,11.00
2018-05-11T18:01:32.292Z,12.53
2018-05-11T18:03:59.110Z,8.83
2018-05-11T18:06:26.767Z,9.90
2018-05-11T18:08:54.307Z,8.67
2018-05-11T18:11:29.521Z,9.27
2018-05-11T18:13:56.376Z,9.83
2018-05-11T18:16:53.296Z,11.00
2018-05-11T18:19:20.140Z,10.97
2018-05-11T18:21:47.043Z,10.47
2018-05-11T18:24:13.810Z,9.93
2018-05-11T18:26:41.337Z,10.63
2018-05-11T18:29:08.148Z,10.87
2018-05-11T18:31:34.970Z,11.53
2018-05-11T18:34:01.777Z,11.07
2018-05-11T18:36:29.667Z,8.67
2018-05-11T18:38:57.221Z,13.67
2018-05-11T18:41:24.815Z,8.17
2018-05-11T18:43:51.612Z,11.67
2018-05-11T18:46:19.446Z,8.80
2018-05-11T18:48:46.306Z,10.07
2018-05-11T18:51:13.195Z,9.93
2018-05-11T18:53:41.147Z,12.33
2018-05-11T18:56:07.772Z,14.17
2018-05-11T18:58:34.565Z,9.93
2018-05-11T19:01:01.353Z,11.87
2018-05-11T19:03:28.137Z,11.73
2018-05-11T19:05:55.904Z,12.83
2018-05-11T19:08:22.704Z,10.97
2018-05-11T19:10:49.511Z,11.13
2018-05-11T19:13:26.509Z,9.30
2018-05-11T19:18:54.728Z,11.23
2018-05-11T19:21:22.089Z,9.60
2018-05-11T19:23:50.606Z,8.87
2018-05-11T19:26:21.654Z,10.27
2018-05-11T19:28:52.537Z,11.27
2018-05-11T19:31:25.339Z,11.67
2018-05-11T19:33:54.784Z,18.27
2018-05-11T19:36:22.483Z,15.10
2018-05-11T19:38:53.364Z,11.13
2018-05-11T19:41:22.181Z,10.27
2018-05-11T19:43:49.664Z,11.70
2018-05-11T19:46:17.302Z,10.73
2018-05-11T19:48:44.970Z,10.00
2018-05-11T19:51:12.542Z,9.20
2018-05-11T19:53:39.488Z,10.37
2018-05-11T19:56:25.619Z,8.93
2018-05-11T19:58:52.477Z,8.87
2018-05-11T20:01:21.018Z,10.33
2018-05-11T20:03:49.069Z,7.70
2018-05-11T20:06:16.597Z,11.23
2018-05-11T20:08:43.653Z,8.83
2018-05-11T20:11:10.697Z,7.87
2018-05-11T20:13:37.541Z,9.53
2018-05-11T20:19:19.878Z,9.97
2018-05-11T20:21:46.714Z,7.00
2018-05-11T20:24:13.567Z,10.03
2018-05-11T20:26:54.778Z,8.90
2018-05-11T20:29:22.506Z,8.10
2018-05-11T20:31:49.454Z,9.10
2018-05-11T20:34:23.231Z,7.80
2018-05-11T20:36:50.086Z,8.93
2018-05-11T20:39:16.901Z,9.50
2018-05-11T20:41:44.434Z,8.87
2018-05-11T20:44:11.265Z,7.50
2018-05-11T20:46:38.036Z,6.97
2018-05-11T20:49:05.594Z,8.50
2018-05-11T20:51:33.142Z,7.33
2018-05-11T20:54:00.083Z,7.23
2018-05-11T20:56:26.870Z,6.90
2018-05-11T20:58:53.635Z,6.50
2018-05-11T21:01:21.979Z,7.33
2018-05-11T21:03:49.635Z,9.80
2018-05-11T21:06:17.469Z,7.43
2018-05-11T21:08:44.430Z,12.83
2018-05-11T21:11:11.474Z,9.00
2018-05-11T21:13:38.513Z,8.80
2018-05-11T21:19:09.379Z,7.57
2018-05-11T21:21:36.331Z,6.20
2018-05-11T21:24:03.381Z,8.97
2018-05-11T21:26:30.329Z,6.97
2018-05-11T21:28:57.197Z,8.90
2018-05-11T21:31:28.626Z,8.40
2018-05-11T21:33:55.469Z,10.60
2018-05-11T21:36:22.413Z,8.23
2018-05-11T21:38:49.469Z,9.90
2018-05-11T21:41:16.399Z,8.47
2018-05-11T21:43:44.009Z,10.23
2018-05-11T21:46:11.744Z,8.53
2018-05-11T21:48:38.683Z,9.07
2018-05-11T21:51:05.738Z,10.33
2018-05-11T21:53:32.788Z,7.53
2018-05-11T21:55:59.736Z,8.77
2018-05-11T21:58:26.777Z,6.97
2018-05-11T22:00:53.623Z,9.33
2018-05-11T22:03:20.577Z,6.67
2018-05-11T22:05:48.242Z,8.33
2018-05-11T22:08:15.293Z,7.27
2018-05-11T22:10:42.491Z,8.07
2018-05-11T22:13:10.234Z,8.30
2018-05-11T22:15:38.071Z,9.83
2018-05-11T22:18:05.026Z,9.60
2018-05-11T22:20:31.964Z,10.10
2018-05-11T22:22:58.919Z,8.63
2018-05-11T22:25:26.073Z,9.23
2018-05-11T22:27:53.025Z,8.20
2018-05-11T22:30:19.854Z,9.67
2018-05-11T22:32:46.907Z,8.47
2018-05-11T22:35:13.861Z,7.53
2018-05-11T22:37:40.801Z,7.00
2018-05-11T22:40:07.643Z,9.27
2018-05-11T22:42:34.488Z,11.57
2018-05-11T22:45:01.548Z,12.33
2018-05-11T22:47:28.381Z,13.53
2018-05-11T22:49:55.338Z,17.63
2018-05-11T22:52:22.279Z,11.33
2018-05-11T22:54:49.223Z,11.37
2018-05-11T22:57:16.069Z,10.33
2018-05-11T22:59:43.129Z,8.90
2018-05-11T23:02:10.066Z,8.43
2018-05-11T23:04:37.013Z,7.60
2018-05-11T23:07:03.972Z,6.50
2018-05-11T23:09:31.019Z,7.63
2018-05-11T23:11:57.857Z,9.67
2018-05-11T23:14:24.811Z,8.00
2018-05-11T23:16:52.470Z,8.00
2018-05-11T23:19:19.531Z,7.13
2018-05-11T23:21:46.471Z,8.03
2018-05-11T23:24:13.420Z,8.23
2018-05-11T23:26:40.469Z,7.67
2018-05-11T23:29:07.416Z,7.83
2018-05-11T23:31:34.364Z,7.83
2018-05-11T23:34:01.200Z,11.07
2018-05-11T23:36:28.148Z,8.00
2018-05-11T23:38:54.973Z,8.40
2018-05-11T23:41:22.449Z,7.70
2018-05-11T23:43:49.406Z,8.73
2018-05-11T23:46:16.345Z,8.97
2018-05-11T23:48:43.194Z,8.90
2018-05-11T23:51:10.240Z,5.80
2018-05-11T23:53:37.093Z,6.73
2018-05-11T23:56:04.040Z,6.50
2018-05-11T23:58:30.981Z,9.63
